createdAt,value
2019-03-28T00:01:30.323Z,9.35
2019-03-28T00:04:31.971Z,9.35
2019-03-28T00:06:51.588Z,9.34
2019-03-28T00:09:34.386Z,9.34
2019-03-28T00:12:15.157Z,9.35
2019-03-28T00:14:52.327Z,9.34
2019-03-28T00:17:47.273Z,9.33
2019-03-28T00:20:20.445Z,9.32
2019-03-28T00:22:59.714Z,9.31
2019-03-28T00:28:55.743Z,9.29
2019-03-28T00:31:47.757Z,9.29
2019-03-28T00:34:26.154Z,9.29
2019-03-28T00:37:07.634Z,9.29
2019-03-28T00:40:09.206Z,9.27
2019-03-28T00:42:49.969Z,9.25
2019-03-28T00:46:01.013Z,9.24
2019-03-28T00:48:54.493Z,9.23
2019-03-28T00:51:44.373Z,9.23
2019-03-28T00:54:32.567Z,9.24
2019-03-28T00:57:14.889Z,9.25
2019-03-28T00:59:57.690Z,9.26
2019-03-28T01:02:22.483Z,9.26
2019-03-28T01:04:52.432Z,9.27
2019-03-28T01:07:25.804Z,9.27
2019-03-28T01:10:23.428Z,9.27
2019-03-28T01:13:35.451Z,9.26
2019-03-28T01:19:08.198Z,9.22
2019-03-28T01:21:38.103Z,9.20
2019-03-28T01:24:08.701Z,9.21
2019-03-28T01:26:59.099Z,9.21
2019-03-28T01:29:31.063Z,9.23
2019-03-28T01:32:03.022Z,9.25
2019-03-28T01:34:59.661Z,9.27
2019-03-28T01:38:15.139Z,9.27
2019-03-28T01:40:48.199Z,9.28
2019-03-28T01:43:36.975Z,9.30
2019-03-28T01:46:12.373Z,9.30
2019-03-28T01:49:12.152Z,9.30
2019-03-28T01:52:00.626Z,9.30
2019-03-28T01:54:56.405Z,9.30
2019-03-28T01:57:37.816Z,9.30
2019-03-28T02:00:19.864Z,9.29
2019-03-28T02:02:56.154Z,9.26
2019-03-28T02:05:40.219Z,9.23
2019-03-28T02:08:31.015Z,9.22
2019-03-28T02:11:21.807Z,9.23
2019-03-28T02:14:12.351Z,9.23
2019-03-28T02:17:05.758Z,9.21
2019-03-28T02:20:03.933Z,9.20
2019-03-28T02:23:01.188Z,9.17
2019-03-28T02:25:48.438Z,9.19
2019-03-28T02:28:37.727Z,9.18
2019-03-28T02:31:23.651Z,9.17
2019-03-28T02:34:05.777Z,9.16
2019-03-28T02:40:04.075Z,9.16
2019-03-28T02:42:37.408Z,9.14
2019-03-28T02:46:01.927Z,9.14
2019-03-28T02:48:16.023Z,9.14
2019-03-28T02:51:05.555Z,9.13
2019-03-28T02:53:43.556Z,9.12
2019-03-28T02:56:27.795Z,9.10
2019-03-28T03:02:04.957Z,9.12
2019-03-28T03:04:49.254Z,9.12
2019-03-28T03:07:50.702Z,9.13
2019-03-28T03:09:59.442Z,9.13
2019-03-28T03:15:40.259Z,9.12
2019-03-28T03:18:21.225Z,9.13
2019-03-28T03:23:57.268Z,9.13
2019-03-28T03:26:24.136Z,9.12
2019-03-28T03:29:02.803Z,9.11
2019-03-28T03:31:53.609Z,9.10
2019-03-28T03:34:40.846Z,9.11
2019-03-28T03:37:13.134Z,9.10
2019-03-28T03:40:50.105Z,9.12
2019-03-28T03:42:27.803Z,9.12
2019-03-28T03:45:02.877Z,9.13
2019-03-28T03:47:43.043Z,9.13
2019-03-28T03:50:39.194Z,9.14
2019-03-28T03:53:09.942Z,9.16
2019-03-28T03:55:45.091Z,9.16
2019-03-28T03:58:33.059Z,9.15
2019-03-28T04:04:04.695Z,9.15
2019-03-28T04:06:40.493Z,9.14
2019-03-28T04:09:34.916Z,9.14
2019-03-28T04:12:12.074Z,9.14
2019-03-28T04:17:51.167Z,9.15
2019-03-28T04:20:35.765Z,9.18
2019-03-28T04:23:18.067Z,9.19
2019-03-28T04:26:12.086Z,9.20
2019-03-28T04:28:36.846Z,9.21
2019-03-28T04:31:22.232Z,9.22
2019-03-28T04:34:06.207Z,9.22
2019-03-28T04:36:52.033Z,9.22
2019-03-28T04:42:37.509Z,9.22
2019-03-28T04:45:27.060Z,9.22
2019-03-28T04:48:27.256Z,9.22
2019-03-28T04:51:06.556Z,9.22
2019-03-28T04:57:08.969Z,9.23
2019-03-28T04:59:39.450Z,9.23
2019-03-28T05:02:17.920Z,9.24
2019-03-28T05:04:48.776Z,9.24
2019-03-28T05:07:18.542Z,9.24
2019-03-28T05:09:47.975Z,9.23
2019-03-28T05:12:32.891Z,9.23
2019-03-28T05:15:28.242Z,9.23
2019-03-28T05:17:48.689Z,9.23
2019-03-28T05:20:27.403Z,9.23
2019-03-28T05:23:08.189Z,9.24
2019-03-28T05:25:40.723Z,9.25
2019-03-28T05:32:02.087Z,9.26
2019-03-28T05:34:31.451Z,9.27
2019-03-28T05:37:00.976Z,9.25
2019-03-28T05:39:30.547Z,9.24
2019-03-28T05:41:59.982Z,9.23
2019-03-28T05:44:51.488Z,9.22
2019-03-28T05:51:01.666Z,9.24
2019-03-28T05:53:03.964Z,9.24
2019-03-28T05:56:30.372Z,9.25
2019-03-28T06:02:48.505Z,9.27
2019-03-28T06:06:05.464Z,9.26
2019-03-28T06:08:34.997Z,9.28
2019-03-28T06:11:04.441Z,9.27
2019-03-28T06:13:33.882Z,9.26
2019-03-28T06:16:03.346Z,9.25
2019-03-28T06:18:32.791Z,9.27
2019-03-28T06:21:02.236Z,9.27
2019-03-28T06:23:31.694Z,9.27
2019-03-28T06:26:01.145Z,9.26
2019-03-28T06:28:30.606Z,9.27
2019-03-28T06:31:00.054Z,9.27
2019-03-28T06:33:29.493Z,9.29
2019-03-28T06:36:02.032Z,9.30
2019-03-28T06:38:30.121Z,9.31
2019-03-28T06:40:59.561Z,9.32
2019-03-28T06:43:29.292Z,9.33
2019-03-28T06:45:57.998Z,9.33
2019-03-28T06:48:27.466Z,9.34
2019-03-28T06:50:56.930Z,9.36
2019-03-28T06:53:26.392Z,9.36
2019-03-28T06:55:55.832Z,9.38
2019-03-28T06:58:25.284Z,9.41
2019-03-28T07:01:01.638Z,9.41
2019-03-28T07:04:00.309Z,9.43
2019-03-28T07:06:29.992Z,9.45
2019-03-28T07:08:59.433Z,9.46
2019-03-28T07:11:28.895Z,9.50
2019-03-28T07:13:58.346Z,9.52
2019-03-28T07:16:27.795Z,9.55
2019-03-28T07:18:57.246Z,9.58
2019-03-28T07:21:26.976Z,9.60
2019-03-28T07:23:55.680Z,9.63
2019-03-28T07:26:25.638Z,9.65
2019-03-28T07:28:55.628Z,9.68
2019-03-28T07:31:25.095Z,9.70
2019-03-28T07:33:54.524Z,9.73
2019-03-28T07:36:23.983Z,9.76
2019-03-28T07:38:53.424Z,9.80
2019-03-28T07:41:22.877Z,9.84
2019-03-28T07:43:52.335Z,9.86
2019-03-28T07:46:21.785Z,9.90
2019-03-28T07:48:51.227Z,9.93
2019-03-28T07:51:20.682Z,9.97
2019-03-28T07:53:50.136Z,9.99
2019-03-28T07:56:19.573Z,10.01
2019-03-28T07:58:49.042Z,10.05
2019-03-28T08:01:18.513Z,10.08
2019-03-28T08:03:47.958Z,10.11
2019-03-28T08:06:17.455Z,10.13
2019-03-28T08:08:46.887Z,10.14
2019-03-28T08:11:16.393Z,10.16
2019-03-28T08:13:45.866Z,10.18
2019-03-28T08:16:15.333Z,10.19
2019-03-28T08:18:45.365Z,10.20
2019-03-28T08:21:15.034Z,10.21
2019-03-28T08:23:45.439Z,10.22
2019-03-28T08:26:15.032Z,10.22
2019-03-28T08:28:54.222Z,10.20
2019-03-28T08:31:34.176Z,10.19
2019-03-28T08:36:54.433Z,10.18
2019-03-28T08:39:25.168Z,10.19
2019-03-28T08:41:54.844Z,10.19
2019-03-28T08:44:24.314Z,10.21
2019-03-28T08:46:53.833Z,10.21
2019-03-28T08:49:23.271Z,10.23
2019-03-28T08:51:52.751Z,10.26
2019-03-28T08:54:22.247Z,10.27
2019-03-28T08:56:51.725Z,10.29
2019-03-28T08:59:21.187Z,10.32
2019-03-28T09:01:50.638Z,10.34
2019-03-28T09:04:20.081Z,10.35
2019-03-28T09:06:49.557Z,10.36
2019-03-28T09:09:21.188Z,10.39
2019-03-28T09:11:56.026Z,10.41
2019-03-28T09:14:25.476Z,10.43
2019-03-28T09:16:54.927Z,10.43
2019-03-28T09:19:24.386Z,10.46
2019-03-28T09:21:53.842Z,10.48
2019-03-28T09:24:23.298Z,10.49
2019-03-28T09:26:52.760Z,10.51
2019-03-28T09:29:22.286Z,10.51
2019-03-28T09:31:51.895Z,10.54
2019-03-28T09:34:21.373Z,10.54
2019-03-28T09:36:50.821Z,10.56
2019-03-28T09:39:20.260Z,10.58
2019-03-28T09:41:49.729Z,10.57
2019-03-28T09:44:19.174Z,10.58
2019-03-28T09:46:48.625Z,10.58
2019-03-28T09:49:18.097Z,10.60
2019-03-28T09:51:47.545Z,10.62
2019-03-28T09:54:16.988Z,10.64
2019-03-28T09:56:46.462Z,10.65
2019-03-28T09:59:15.894Z,10.66
2019-03-28T10:01:45.345Z,10.69
2019-03-28T10:04:14.802Z,10.72
2019-03-28T10:06:44.247Z,10.76
2019-03-28T10:09:13.709Z,10.80
2019-03-28T10:11:43.182Z,10.86
2019-03-28T10:14:12.628Z,10.93
2019-03-28T10:16:42.112Z,10.98
2019-03-28T10:19:11.908Z,11.03
2019-03-28T10:21:41.975Z,11.08
2019-03-28T10:24:11.650Z,11.15
2019-03-28T10:26:41.636Z,11.23
2019-03-28T10:29:10.602Z,11.31
2019-03-28T10:31:41.294Z,11.38
2019-03-28T10:34:11.117Z,11.45
2019-03-28T10:36:39.818Z,11.50
2019-03-28T10:39:10.515Z,11.54
2019-03-28T10:41:40.248Z,11.57
2019-03-28T10:44:09.049Z,11.58
2019-03-28T10:46:38.526Z,11.59
2019-03-28T10:49:07.979Z,11.59
2019-03-28T10:51:37.489Z,11.63
2019-03-28T10:54:19.322Z,11.68
2019-03-28T10:56:51.007Z,11.69
2019-03-28T10:59:22.351Z,11.71
2019-03-28T11:01:49.172Z,11.74
2019-03-28T11:04:12.196Z,11.76
2019-03-28T11:06:41.645Z,11.79
2019-03-28T11:09:11.166Z,11.80
2019-03-28T11:11:40.630Z,11.82
2019-03-28T11:14:10.079Z,11.85
2019-03-28T11:17:15.548Z,11.88
2019-03-28T11:19:28.791Z,11.91
2019-03-28T11:21:58.520Z,11.92
2019-03-28T11:24:27.234Z,11.93
2019-03-28T11:26:57.674Z,11.93
2019-03-28T11:29:27.181Z,11.93
2019-03-28T11:31:56.629Z,11.97
2019-03-28T11:34:26.078Z,12.02
2019-03-28T11:36:55.549Z,12.08
2019-03-28T11:39:24.986Z,12.14
2019-03-28T11:41:54.452Z,12.17
2019-03-28T11:44:23.917Z,12.19
2019-03-28T11:46:53.368Z,12.21
2019-03-28T11:49:22.795Z,12.24
2019-03-28T11:51:52.260Z,12.25
2019-03-28T11:54:21.730Z,12.28
2019-03-28T11:56:51.171Z,12.31
2019-03-28T11:59:20.640Z,12.32
2019-03-28T12:02:00.400Z,12.33
2019-03-28T12:04:21.269Z,12.35
2019-03-28T12:06:50.925Z,12.35
2019-03-28T12:09:19.709Z,12.34
2019-03-28T12:11:49.129Z,12.36
2019-03-28T12:14:18.590Z,12.42
2019-03-28T12:16:48.035Z,12.47
2019-03-28T12:19:17.848Z,12.52
2019-03-28T12:21:47.446Z,12.55
2019-03-28T12:24:16.880Z,12.61
2019-03-28T12:26:46.328Z,12.66
2019-03-28T12:29:15.813Z,12.70
2019-03-28T12:31:45.263Z,12.72
2019-03-28T12:34:14.744Z,12.76
2019-03-28T12:36:44.691Z,12.80
2019-03-28T12:39:15.795Z,12.86
2019-03-28T12:41:45.347Z,12.91
2019-03-28T12:44:14.796Z,12.95
2019-03-28T12:46:44.260Z,12.97
2019-03-28T12:49:13.723Z,13.00
2019-03-28T12:51:43.181Z,12.99
2019-03-28T12:54:12.622Z,13.03
2019-03-28T12:56:42.074Z,13.05
2019-03-28T12:59:11.531Z,13.07
2019-03-28T13:01:40.981Z,13.03
2019-03-28T13:04:10.435Z,13.03
2019-03-28T13:06:39.902Z,13.07
2019-03-28T13:09:10.280Z,13.10
2019-03-28T13:11:39.751Z,13.17
2019-03-28T13:14:09.239Z,13.21
2019-03-28T13:16:38.679Z,13.22
2019-03-28T13:19:08.148Z,13.24
2019-03-28T13:21:37.628Z,13.27
2019-03-28T13:24:07.975Z,13.27
2019-03-28T13:26:37.736Z,13.29
2019-03-28T13:29:07.305Z,13.33
2019-03-28T13:31:36.739Z,13.35
2019-03-28T13:34:06.119Z,13.35
2019-03-28T13:36:35.540Z,13.37
2019-03-28T13:39:07.646Z,13.39
2019-03-28T13:41:37.076Z,13.41
2019-03-28T13:44:06.480Z,13.41
2019-03-28T13:46:35.870Z,13.41
2019-03-28T13:49:05.264Z,13.43
2019-03-28T13:51:34.711Z,13.47
2019-03-28T13:54:04.112Z,13.50
2019-03-28T13:56:33.784Z,13.55
2019-03-28T13:59:02.479Z,13.55
2019-03-28T14:01:31.891Z,13.55
2019-03-28T14:04:01.311Z,13.56
2019-03-28T14:06:30.878Z,13.57
2019-03-28T14:09:00.231Z,13.59
2019-03-28T14:11:29.637Z,13.60
2019-03-28T14:13:59.053Z,13.61
2019-03-28T14:16:28.457Z,13.61
2019-03-28T14:18:57.857Z,13.60
2019-03-28T14:21:27.268Z,13.58
2019-03-28T14:23:56.668Z,13.58
2019-03-28T14:26:26.089Z,13.61
2019-03-28T14:28:55.539Z,13.64
2019-03-28T14:31:25.023Z,13.68
2019-03-28T14:34:06.935Z,13.71
2019-03-28T14:36:36.293Z,13.75
2019-03-28T14:39:08.094Z,13.78
2019-03-28T14:41:37.519Z,13.79
2019-03-28T14:44:06.923Z,13.79
2019-03-28T14:46:36.320Z,13.81
2019-03-28T14:49:05.860Z,13.82
2019-03-28T14:51:35.553Z,13.84
2019-03-28T14:54:04.970Z,13.84
2019-03-28T14:56:34.692Z,13.86
2019-03-28T14:59:04.027Z,13.92
2019-03-28T15:01:33.377Z,13.93
2019-03-28T15:04:02.795Z,13.95
2019-03-28T15:06:32.196Z,13.96
2019-03-28T15:09:01.585Z,13.96
2019-03-28T15:11:31.007Z,13.97
2019-03-28T15:14:00.405Z,13.95
2019-03-28T15:16:29.812Z,13.92
2019-03-28T15:18:59.220Z,13.88
2019-03-28T15:21:28.618Z,13.86
2019-03-28T15:23:58.017Z,13.84
2019-03-28T15:26:30.140Z,13.82
2019-03-28T15:28:58.561Z,13.78
2019-03-28T15:31:27.951Z,13.75
2019-03-28T15:33:57.356Z,13.76
2019-03-28T15:36:27.441Z,13.80
2019-03-28T15:38:57.131Z,13.83
2019-03-28T15:41:26.537Z,13.85
2019-03-28T15:43:55.952Z,13.87
2019-03-28T15:46:25.715Z,13.89
2019-03-28T15:48:55.206Z,13.92
2019-03-28T15:51:24.605Z,13.93
2019-03-28T15:53:54.009Z,13.95
2019-03-28T15:56:23.425Z,13.94
2019-03-28T15:58:52.833Z,13.92
2019-03-28T16:01:30.088Z,13.93
2019-03-28T16:03:59.494Z,13.92
2019-03-28T16:06:28.896Z,13.91
2019-03-28T16:08:58.464Z,13.90
2019-03-28T16:11:27.883Z,13.91
2019-03-28T16:13:57.246Z,13.89
2019-03-28T16:16:26.660Z,13.89
2019-03-28T16:18:56.073Z,13.87
2019-03-28T16:21:26.902Z,13.85
2019-03-28T16:23:56.478Z,13.83
2019-03-28T16:26:43.172Z,13.82
2019-03-28T16:29:12.601Z,13.79
2019-03-28T16:31:42.884Z,13.77
2019-03-28T16:34:12.373Z,13.73
2019-03-28T16:36:41.820Z,13.71
2019-03-28T16:39:11.452Z,13.67
2019-03-28T16:41:40.843Z,13.64
2019-03-28T16:44:10.279Z,13.62
2019-03-28T16:46:39.659Z,13.59
2019-03-28T16:49:09.150Z,13.58
2019-03-28T16:51:38.556Z,13.55
2019-03-28T16:54:07.955Z,13.53
2019-03-28T16:56:37.362Z,13.50
2019-03-28T16:59:06.943Z,13.45
2019-03-28T17:01:36.332Z,13.41
2019-03-28T17:04:05.800Z,13.36
2019-03-28T17:06:35.385Z,13.34
2019-03-28T17:09:07.556Z,13.32
2019-03-28T17:11:36.962Z,13.31
2019-03-28T17:14:06.399Z,13.28
2019-03-28T17:16:35.798Z,13.26
2019-03-28T17:19:05.261Z,13.25
2019-03-28T17:21:34.686Z,13.22
2019-03-28T17:24:04.327Z,13.19
2019-03-28T17:26:32.991Z,13.18
2019-03-28T17:29:02.375Z,13.18
2019-03-28T17:31:31.791Z,13.18
2019-03-28T17:34:01.189Z,13.17
2019-03-28T17:36:30.624Z,13.15
2019-03-28T17:39:00.043Z,13.13
2019-03-28T17:41:29.432Z,13.09
2019-03-28T17:43:58.842Z,13.06
2019-03-28T17:46:28.232Z,13.03
2019-03-28T17:48:58.815Z,12.98
2019-03-28T17:51:29.048Z,12.97
2019-03-28T17:53:58.452Z,12.95
2019-03-28T17:56:29.738Z,12.93
2019-03-28T17:58:59.229Z,12.91
2019-03-28T18:01:28.638Z,12.89
2019-03-28T18:03:58.035Z,12.85
2019-03-28T18:06:27.444Z,12.84
2019-03-28T18:08:56.835Z,12.83
2019-03-28T18:11:26.233Z,12.81
2019-03-28T18:13:55.641Z,12.81
2019-03-28T18:16:25.289Z,12.79
2019-03-28T18:18:53.948Z,12.80
2019-03-28T18:21:23.326Z,12.78
2019-03-28T18:23:52.721Z,12.75
2019-03-28T18:26:22.116Z,12.75
2019-03-28T18:28:51.550Z,12.73
2019-03-28T18:31:20.937Z,12.70
2019-03-28T18:33:50.349Z,12.67
2019-03-28T18:36:19.746Z,12.66
2019-03-28T18:38:52.283Z,12.63
2019-03-28T18:41:20.263Z,12.61
2019-03-28T18:43:49.824Z,12.58
2019-03-28T18:46:19.449Z,12.53
2019-03-28T18:48:48.861Z,12.48
2019-03-28T18:51:18.263Z,12.46
2019-03-28T18:53:47.661Z,12.45
2019-03-28T18:56:17.057Z,12.43
2019-03-28T18:58:46.460Z,12.42
2019-03-28T19:01:15.857Z,12.39
2019-03-28T19:03:45.252Z,12.36
2019-03-28T19:06:15.215Z,12.36
2019-03-28T19:08:45.490Z,12.35
2019-03-28T19:11:14.890Z,12.34
2019-03-28T19:13:44.295Z,12.32
2019-03-28T19:16:13.691Z,12.32
2019-03-28T19:18:43.093Z,12.31
2019-03-28T19:21:12.514Z,12.29
2019-03-28T19:23:41.906Z,12.28
2019-03-28T19:26:11.374Z,12.26
2019-03-28T19:28:40.779Z,12.25
2019-03-28T19:31:10.182Z,12.24
2019-03-28T19:33:40.894Z,12.24
2019-03-28T19:36:10.819Z,12.24
2019-03-28T19:38:40.348Z,12.21
2019-03-28T19:41:10.000Z,12.20
2019-03-28T19:43:39.724Z,12.17
2019-03-28T19:46:08.376Z,12.16
2019-03-28T19:48:37.736Z,12.14
2019-03-28T19:51:07.869Z,12.13
2019-03-28T19:53:37.316Z,12.12
2019-03-28T19:56:06.711Z,12.11
2019-03-28T19:58:36.132Z,12.09
2019-03-28T20:01:06.463Z,12.07
2019-03-28T20:03:35.863Z,12.07
2019-03-28T20:06:06.421Z,12.05
2019-03-28T20:08:35.816Z,12.03
2019-03-28T20:11:05.510Z,12.01
2019-03-28T20:13:34.147Z,11.98
2019-03-28T20:16:03.572Z,11.94
2019-03-28T20:18:32.972Z,11.93
2019-03-28T20:21:02.627Z,11.92
2019-03-28T20:23:31.280Z,11.92
2019-03-28T20:26:00.636Z,11.90
2019-03-28T20:28:30.061Z,11.91
2019-03-28T20:30:59.439Z,11.87
2019-03-28T20:33:28.832Z,11.84
2019-03-28T20:36:13.510Z,11.79
2019-03-28T20:38:29.915Z,11.76
2019-03-28T20:40:59.609Z,11.71
2019-03-28T20:43:29.014Z,11.68
2019-03-28T20:45:58.412Z,11.64
2019-03-28T20:48:27.808Z,11.62
2019-03-28T20:50:57.869Z,11.60
2019-03-28T20:53:27.562Z,11.58
2019-03-28T20:55:56.966Z,11.55
2019-03-28T20:58:26.374Z,11.52
2019-03-28T21:00:55.903Z,11.49
2019-03-28T21:03:25.375Z,11.46
2019-03-28T21:06:15.110Z,11.43
2019-03-28T21:08:37.094Z,11.40
2019-03-28T21:11:07.339Z,11.40
2019-03-28T21:13:36.825Z,11.40
2019-03-28T21:16:06.214Z,11.42
2019-03-28T21:18:35.603Z,11.42
2019-03-28T21:21:05.026Z,11.42
2019-03-28T21:23:34.424Z,11.42
2019-03-28T21:26:03.803Z,11.42
2019-03-28T21:28:46.185Z,11.42
2019-03-28T21:31:04.662Z,11.42
2019-03-28T21:33:34.052Z,11.43
2019-03-28T21:36:04.207Z,11.43
2019-03-28T21:38:33.633Z,11.42
2019-03-28T21:41:03.025Z,11.42
2019-03-28T21:43:32.524Z,11.41
2019-03-28T21:46:02.059Z,11.42
2019-03-28T21:48:31.471Z,11.42
2019-03-28T21:51:00.951Z,11.42
2019-03-28T21:53:30.319Z,11.41
2019-03-28T21:56:55.391Z,11.39
2019-03-28T21:59:24.790Z,11.38
2019-03-28T22:01:54.169Z,11.35
2019-03-28T22:04:23.751Z,11.33
2019-03-28T22:06:53.145Z,11.31
2019-03-28T22:09:22.545Z,11.30
2019-03-28T22:11:51.953Z,11.26
2019-03-28T22:14:21.412Z,11.21
2019-03-28T22:16:50.815Z,11.16
2019-03-28T22:19:20.220Z,11.14
2019-03-28T22:21:49.613Z,11.12
2019-03-28T22:24:19.245Z,11.12
2019-03-28T22:26:48.659Z,11.12
2019-03-28T22:29:18.043Z,11.14
2019-03-28T22:31:47.438Z,11.14
2019-03-28T22:34:16.847Z,11.14
2019-03-28T22:36:56.459Z,11.15
2019-03-28T22:39:17.356Z,11.15
2019-03-28T22:41:46.756Z,11.14
2019-03-28T22:44:16.161Z,11.13
2019-03-28T22:46:45.553Z,11.12
2019-03-28T22:49:14.977Z,11.12
2019-03-28T22:51:44.365Z,11.11
2019-03-28T22:54:13.765Z,11.09
2019-03-28T22:56:43.171Z,11.06
2019-03-28T22:59:12.569Z,11.06
2019-03-28T23:01:42.032Z,11.06
2019-03-28T23:04:12.887Z,11.05
2019-03-28T23:06:42.359Z,11.06
2019-03-28T23:09:11.754Z,11.03
2019-03-28T23:11:41.745Z,11.03
2019-03-28T23:14:12.071Z,11.01
2019-03-28T23:16:41.468Z,11.00
2019-03-28T23:19:12.132Z,10.99
2019-03-28T23:21:41.900Z,10.99
2019-03-28T23:24:11.293Z,10.99
2019-03-28T23:26:40.703Z,10.99
2019-03-28T23:29:10.209Z,10.97
2019-03-28T23:31:40.270Z,10.95
2019-03-28T23:34:09.680Z,10.93
2019-03-28T23:36:39.075Z,10.92
2019-03-28T23:39:08.933Z,10.89
2019-03-28T23:41:38.346Z,10.89
2019-03-28T23:44:07.743Z,10.89
2019-03-28T23:46:37.211Z,10.87
2019-03-28T23:49:07.204Z,10.86
2019-03-28T23:51:36.605Z,10.86
2019-03-28T23:54:06.066Z,10.85
2019-03-28T23:56:35.495Z,10.86
2019-03-28T23:59:05.725Z,10.85
